Friday, February 23, 2018, 7:48 PM GMT
Back to Local

CWRN, Hart Island Meteorological Aeronautical Presentation System

Location: , , Canada Lat: 45.35
Local Time: 7:48 PM GMT (19:48 GMT) Lon: -60.983
Time Zone: GMT Elev: 13 ft

Show me the last for .
Show Coded

Time T Td Feel RH Dir Speed Gust Alt SLP Vis Weather Sky Remarks
2018-02-23 19:00 24 12 12 58 330° 14 - - 30.58 0 None
2018-02-23 18:00 27 15 14 60 300° 16 - - 30.61 0 Peak wind: 20 mph (18 kts) from 300° at 48 min
2018-02-23 17:00 25 8 11 47 290° 15 22 - 30.62 0 Peak wind: 21 mph (19 kts) from 300° at 56 min
2018-02-23 16:00 25 10 13 51 300° 13 - - 30.62 0 Peak wind: 20 mph (18 kts) from 300° at 28 min
2018-02-23 15:00 24 10 12 56 310° 13 - - 30.64 0 Peak wind: 20 mph (18 kts) from 330° at 02 min
2018-02-23 14:00 20 9 7 61 340° 15 - - 30.65 0 Peak wind: 21 mph (19 kts) from 340° at 04 min
2018-02-23 13:00 20 10 4 66 330° 18 - - 30.65 0 Peak wind: 25 mph (22 kts) from 330° at 29 min
2018-02-23 12:00 19 11 2 72 330° 22 - - 30.66 0 Peak wind: 31 mph (27 kts) from 330° at 10 min
2018-02-23 11:00 19 11 2 70 340° 24 - - 30.64 0 Peak wind: 34 mph (30 kts) from 320° at 14 min
2018-02-23 10:00 20 12 0 71 340° 29 35 - 30.62 0 Peak wind: 36 mph (32 kts) from 330° at 32 min
2018-02-23 09:00 20 13 1 73 330° 30 36 - 30.61 0 Peak wind: 39 mph (34 kts) from 320° at 08 min
2018-02-23 08:00 22 15 1 74 330° 32 41 - 30.58 0 Peak wind: 41 mph (36 kts) from 330° at 55 min
2018-02-23 07:00 24 18 6 75 320° 29 35 - 30.56 0 Peak wind: 34 mph (30 kts) from 320° at 17 min
2018-02-23 06:00 24 18 6 78 320° 26 33 - 30.55 0 Peak wind: 35 mph (31 kts) from 310° at 32 min
2018-02-23 05:00 24 18 7 77 320° 25 - - 30.54 0 Peak wind: 31 mph (27 kts) from 320° at 01 min
2018-02-23 04:00 23 18 5 79 320° 26 32 - 30.54 0 Peak wind: 32 mph (28 kts) from 320° at 55 min
2018-02-23 03:00 23 18 7 80 320° 24 - - 30.54 0 Peak wind: 29 mph (26 kts) from 320° at 23 min
2018-02-23 02:00 22 17 7 81 320° 22 - - 30.55 0 Peak wind: 28 mph (25 kts) from 320° at 01 min
2018-02-23 01:00 22 18 5 83 320° 24 - - 30.56 0 Peak wind: 29 mph (26 kts) from 310° at 38 min
2018-02-23 00:00 21 19 5 89 320° 22 - - 30.55 0 Peak wind: 28 mph (25 kts) from 320° at 41 min
2018-02-22 23:00 21 16 4 80 310° 21 28 - 30.55 0 Peak wind: 29 mph (26 kts) from 310° at 48 min
2018-02-22 22:00 21 16 3 80 320° 23 29 - 30.53 0 Peak wind: 32 mph (28 kts) from 310° at 14 min
2018-02-22 21:00 21 15 3 76 310° 25 31 - 30.54 0 Peak wind: 31 mph (27 kts) from 310° at 58 min
2018-02-22 20:00 22 15 5 74 300° 24 - - 30.52 0 Peak wind: 34 mph (30 kts) from 300° at 03 min

Support USWX by starting your Amazon purchase here.